sensor_id;sensor_type;location;lat;lon;timestamp;temperature;humidity
21169;DHT22;10742;51.816;8.662;2023-06-10T00:02:30;23.80;60.50
21169;DHT22;10742;51.816;8.662;2023-06-10T00:05:32;23.80;60.10
21169;DHT22;10742;51.816;8.662;2023-06-10T00:08:37;23.80;60.10
21169;DHT22;10742;51.816;8.662;2023-06-10T00:11:40;23.70;60.20
21169;DHT22;10742;51.816;8.662;2023-06-10T00:14:43;23.70;60.10
21169;DHT22;10742;51.816;8.662;2023-06-10T00:17:46;23.70;60.30
21169;DHT22;10742;51.816;8.662;2023-06-10T00:20:48;23.70;60.30
21169;DHT22;10742;51.816;8.662;2023-06-10T00:23:55;23.60;60.40
21169;DHT22;10742;51.816;8.662;2023-06-10T00:26:58;23.60;60.50
21169;DHT22;10742;51.816;8.662;2023-06-10T00:30:04;23.60;60.70
21169;DHT22;10742;51.816;8.662;2023-06-10T00:33:09;23.50;60.90
21169;DHT22;10742;51.816;8.662;2023-06-10T00:36:12;23.50;61.00
21169;DHT22;10742;51.816;8.662;2023-06-10T00:39:15;23.50;61.00
21169;DHT22;10742;51.816;8.662;2023-06-10T00:42:17;23.40;61.00
21169;DHT22;10742;51.816;8.662;2023-06-10T00:45:20;23.40;61.00
21169;DHT22;10742;51.816;8.662;2023-06-10T00:48:23;23.40;60.90
21169;DHT22;10742;51.816;8.662;2023-06-10T00:51:25;23.30;60.90
21169;DHT22;10742;51.816;8.662;2023-06-10T00:54:28;23.20;61.00
21169;DHT22;10742;51.816;8.662;2023-06-10T00:57:31;23.20;61.10
21169;DHT22;10742;51.816;8.662;2023-06-10T01:00:34;23.20;61.20
21169;DHT22;10742;51.816;8.662;2023-06-10T01:03:38;23.10;61.20
21169;DHT22;10742;51.816;8.662;2023-06-10T01:06:54;23.10;61.00
21169;DHT22;10742;51.816;8.662;2023-06-10T01:10:02;23.10;61.20
21169;DHT22;10742;51.816;8.662;2023-06-10T01:13:10;23.00;61.00
21169;DHT22;10742;51.816;8.662;2023-06-10T01:16:14;23.00;61.50
21169;DHT22;10742;51.816;8.662;2023-06-10T01:19:16;22.90;61.30
21169;DHT22;10742;51.816;8.662;2023-06-10T01:22:19;22.90;61.60
21169;DHT22;10742;51.816;8.662;2023-06-10T01:25:22;22.90;61.70
21169;DHT22;10742;51.816;8.662;2023-06-10T01:28:49;22.90;61.90
21169;DHT22;10742;51.816;8.662;2023-06-10T01:32:04;22.80;62.50
21169;DHT22;10742;51.816;8.662;2023-06-10T01:35:10;22.80;62.50
21169;DHT22;10742;51.816;8.662;2023-06-10T01:38:14;22.80;62.50
21169;DHT22;10742;51.816;8.662;2023-06-10T01:41:18;22.70;62.80
21169;DHT22;10742;51.816;8.662;2023-06-10T01:44:24;22.70;63.00
21169;DHT22;10742;51.816;8.662;2023-06-10T01:47:26;22.60;63.60
21169;DHT22;10742;51.816;8.662;2023-06-10T01:50:29;22.60;63.40
21169;DHT22;10742;51.816;8.662;2023-06-10T01:53:32;22.50;63.60
21169;DHT22;10742;51.816;8.662;2023-06-10T01:56:34;22.50;63.90
21169;DHT22;10742;51.816;8.662;2023-06-10T01:59:37;22.50;64.10
21169;DHT22;10742;51.816;8.662;2023-06-10T02:02:40;22.40;64.20
21169;DHT22;10742;51.816;8.662;2023-06-10T02:05:43;22.40;64.40
21169;DHT22;10742;51.816;8.662;2023-06-10T02:08:45;22.40;64.60
21169;DHT22;10742;51.816;8.662;2023-06-10T02:11:48;22.40;64.80
21169;DHT22;10742;51.816;8.662;2023-06-10T02:14:51;22.30;65.40
21169;DHT22;10742;51.816;8.662;2023-06-10T02:17:53;22.30;66.00
21169;DHT22;10742;51.816;8.662;2023-06-10T02:20:57;22.20;66.30
21169;DHT22;10742;51.816;8.662;2023-06-10T02:24:01;22.30;66.00
21169;DHT22;10742;51.816;8.662;2023-06-10T02:27:04;22.20;66.30
21169;DHT22;10742;51.816;8.662;2023-06-10T02:30:09;22.20;66.20
21169;DHT22;10742;51.816;8.662;2023-06-10T02:33:13;22.20;66.10
21169;DHT22;10742;51.816;8.662;2023-06-10T02:36:16;22.20;65.90
21169;DHT22;10742;51.816;8.662;2023-06-10T02:39:19;22.10;66.00
21169;DHT22;10742;51.816;8.662;2023-06-10T02:42:21;22.10;66.60
21169;DHT22;10742;51.816;8.662;2023-06-10T02:45:26;22.10;65.90
21169;DHT22;10742;51.816;8.662;2023-06-10T02:48:29;22.00;66.00
21169;DHT22;10742;51.816;8.662;2023-06-10T02:51:32;22.00;66.10
21169;DHT22;10742;51.816;8.662;2023-06-10T02:54:37;21.90;66.60
21169;DHT22;10742;51.816;8.662;2023-06-10T02:57:42;21.90;66.70
21169;DHT22;10742;51.816;8.662;2023-06-10T03:00:45;21.90;66.60
21169;DHT22;10742;51.816;8.662;2023-06-10T03:03:48;21.90;66.50
21169;DHT22;10742;51.816;8.662;2023-06-10T03:06:54;21.90;66.50
21169;DHT22;10742;51.816;8.662;2023-06-10T03:10:03;21.80;66.60
21169;DHT22;10742;51.816;8.662;2023-06-10T03:13:06;21.80;67.20
21169;DHT22;10742;51.816;8.662;2023-06-10T03:16:09;21.80;67.50
21169;DHT22;10742;51.816;8.662;2023-06-10T03:19:13;21.80;67.50
21169;DHT22;10742;51.816;8.662;2023-06-10T03:22:19;21.80;67.30
21169;DHT22;10742;51.816;8.662;2023-06-10T03:25:34;21.80;67.40
21169;DHT22;10742;51.816;8.662;2023-06-10T03:28:37;21.80;67.30
21169;DHT22;10742;51.816;8.662;2023-06-10T03:31:39;21.80;67.20
21169;DHT22;10742;51.816;8.662;2023-06-10T03:34:43;21.70;67.20
21169;DHT22;10742;51.816;8.662;2023-06-10T03:37:48;21.70;67.10
21169;DHT22;10742;51.816;8.662;2023-06-10T03:40:50;21.70;66.90
21169;DHT22;10742;51.816;8.662;2023-06-10T03:43:53;21.60;66.90
21169;DHT22;10742;51.816;8.662;2023-06-10T03:46:57;21.60;67.00
21169;DHT22;10742;51.816;8.662;2023-06-10T03:50:01;21.50;67.30
21169;DHT22;10742;51.816;8.662;2023-06-10T03:53:04;21.50;67.40
21169;DHT22;10742;51.816;8.662;2023-06-10T03:56:07;21.40;67.40
21169;DHT22;10742;51.816;8.662;2023-06-10T03:59:09;21.40;67.30
21169;DHT22;10742;51.816;8.662;2023-06-10T04:02:31;21.40;67.60
21169;DHT22;10742;51.816;8.662;2023-06-10T04:05:53;21.40;67.90
21169;DHT22;10742;51.816;8.662;2023-06-10T04:09:15;21.30;67.90
21169;DHT22;10742;51.816;8.662;2023-06-10T04:12:38;21.40;68.30
21169;DHT22;10742;51.816;8.662;2023-06-10T04:16:00;21.40;68.20
21169;DHT22;10742;51.816;8.662;2023-06-10T04:19:21;21.40;68.40
21169;DHT22;10742;51.816;8.662;2023-06-10T04:22:44;21.40;68.30
21169;DHT22;10742;51.816;8.662;2023-06-10T04:26:06;21.50;68.40
21169;DHT22;10742;51.816;8.662;2023-06-10T04:29:28;21.50;68.30
21169;DHT22;10742;51.816;8.662;2023-06-10T04:32:51;21.60;68.40
21169;DHT22;10742;51.816;8.662;2023-06-10T04:36:13;21.60;68.10
21169;DHT22;10742;51.816;8.662;2023-06-10T04:39:17;21.70;68.10
21169;DHT22;10742;51.816;8.662;2023-06-10T04:42:20;21.70;68.20
21169;DHT22;10742;51.816;8.662;2023-06-10T04:45:23;21.70;68.40
21169;DHT22;10742;51.816;8.662;2023-06-10T04:48:26;21.80;68.70
21169;DHT22;10742;51.816;8.662;2023-06-10T04:51:29;21.80;68.70
21169;DHT22;10742;51.816;8.662;2023-06-10T04:54:31;21.90;68.80
21169;DHT22;10742;51.816;8.662;2023-06-10T04:57:34;21.90;68.90
21169;DHT22;10742;51.816;8.662;2023-06-10T05:00:37;21.90;69.00
21169;DHT22;10742;51.816;8.662;2023-06-10T05:03:39;22.00;69.00
21169;DHT22;10742;51.816;8.662;2023-06-10T05:06:42;22.10;68.80
21169;DHT22;10742;51.816;8.662;2023-06-10T05:09:45;22.10;68.80
21169;DHT22;10742;51.816;8.662;2023-06-10T05:12:47;22.20;69.00
21169;DHT22;10742;51.816;8.662;2023-06-10T05:15:50;22.30;69.30
21169;DHT22;10742;51.816;8.662;2023-06-10T05:18:52;22.40;69.20
21169;DHT22;10742;51.816;8.662;2023-06-10T05:21:55;22.50;69.30
21169;DHT22;10742;51.816;8.662;2023-06-10T05:24:57;22.80;69.10
21169;DHT22;10742;51.816;8.662;2023-06-10T05:28:00;22.90;69.10
21169;DHT22;10742;51.816;8.662;2023-06-10T05:31:02;23.10;69.10
21169;DHT22;10742;51.816;8.662;2023-06-10T05:34:05;23.30;68.90
21169;DHT22;10742;51.816;8.662;2023-06-10T05:37:07;23.50;68.50
21169;DHT22;10742;51.816;8.662;2023-06-10T05:40:11;23.80;67.90
21169;DHT22;10742;51.816;8.662;2023-06-10T05:43:13;24.00;67.10
21169;DHT22;10742;51.816;8.662;2023-06-10T05:46:16;24.20;66.80
21169;DHT22;10742;51.816;8.662;2023-06-10T05:49:19;24.50;65.90
21169;DHT22;10742;51.816;8.662;2023-06-10T05:52:21;24.70;64.90
21169;DHT22;10742;51.816;8.662;2023-06-10T05:55:24;25.00;63.90
21169;DHT22;10742;51.816;8.662;2023-06-10T05:58:26;25.20;63.50
21169;DHT22;10742;51.816;8.662;2023-06-10T06:01:29;25.40;63.30
21169;DHT22;10742;51.816;8.662;2023-06-10T06:04:32;25.70;62.70
21169;DHT22;10742;51.816;8.662;2023-06-10T06:07:34;25.90;62.20
21169;DHT22;10742;51.816;8.662;2023-06-10T06:10:37;26.10;61.90
21169;DHT22;10742;51.816;8.662;2023-06-10T06:13:39;26.30;61.30
21169;DHT22;10742;51.816;8.662;2023-06-10T06:16:43;26.50;61.20
21169;DHT22;10742;51.816;8.662;2023-06-10T06:19:49;26.70;61.00
21169;DHT22;10742;51.816;8.662;2023-06-10T06:22:51;27.00;60.60
21169;DHT22;10742;51.816;8.662;2023-06-10T06:25:54;27.20;59.60
21169;DHT22;10742;51.816;8.662;2023-06-10T06:28:57;27.40;59.20
21169;DHT22;10742;51.816;8.662;2023-06-10T06:31:59;27.70;59.10
21169;DHT22;10742;51.816;8.662;2023-06-10T06:35:02;27.90;58.30
21169;DHT22;10742;51.816;8.662;2023-06-10T06:38:05;28.10;57.60
21169;DHT22;10742;51.816;8.662;2023-06-10T06:41:09;28.30;57.00
21169;DHT22;10742;51.816;8.662;2023-06-10T06:44:12;28.50;56.70
21169;DHT22;10742;51.816;8.662;2023-06-10T06:47:18;28.80;56.40
21169;DHT22;10742;51.816;8.662;2023-06-10T06:50:22;29.00;56.30
21169;DHT22;10742;51.816;8.662;2023-06-10T06:53:25;29.10;55.80
21169;DHT22;10742;51.816;8.662;2023-06-10T06:56:27;29.40;55.80
21169;DHT22;10742;51.816;8.662;2023-06-10T06:59:30;29.60;54.80
21169;DHT22;10742;51.816;8.662;2023-06-10T07:02:33;29.80;54.20
21169;DHT22;10742;51.816;8.662;2023-06-10T07:05:35;30.00;54.00
21169;DHT22;10742;51.816;8.662;2023-06-10T07:08:38;30.20;53.40
21169;DHT22;10742;51.816;8.662;2023-06-10T07:11:40;30.40;52.10
21169;DHT22;10742;51.816;8.662;2023-06-10T07:14:45;30.50;51.60
21169;DHT22;10742;51.816;8.662;2023-06-10T07:17:49;30.70;51.20
21169;DHT22;10742;51.816;8.662;2023-06-10T07:20:53;30.80;50.50
21169;DHT22;10742;51.816;8.662;2023-06-10T07:23:56;30.90;50.00
21169;DHT22;10742;51.816;8.662;2023-06-10T07:26:58;30.90;50.30
21169;DHT22;10742;51.816;8.662;2023-06-10T07:30:01;31.10;49.60
21169;DHT22;10742;51.816;8.662;2023-06-10T07:33:04;31.10;49.30
21169;DHT22;10742;51.816;8.662;2023-06-10T07:36:10;31.20;49.00
21169;DHT22;10742;51.816;8.662;2023-06-10T07:39:12;31.20;48.50
21169;DHT22;10742;51.816;8.662;2023-06-10T07:42:15;31.30;48.40
21169;DHT22;10742;51.816;8.662;2023-06-10T07:45:17;31.40;48.70
21169;DHT22;10742;51.816;8.662;2023-06-10T07:48:20;31.50;47.90
21169;DHT22;10742;51.816;8.662;2023-06-10T07:51:23;31.70;47.20
21169;DHT22;10742;51.816;8.662;2023-06-10T07:54:28;31.80;46.90
21169;DHT22;10742;51.816;8.662;2023-06-10T07:57:31;31.90;47.20
21169;DHT22;10742;51.816;8.662;2023-06-10T08:00:37;32.00;47.10
21169;DHT22;10742;51.816;8.662;2023-06-10T08:03:39;32.20;46.90
21169;DHT22;10742;51.816;8.662;2023-06-10T08:06:42;32.30;45.90
21169;DHT22;10742;51.816;8.662;2023-06-10T08:09:44;32.40;45.40
21169;DHT22;10742;51.816;8.662;2023-06-10T08:12:47;32.30;45.40
21169;DHT22;10742;51.816;8.662;2023-06-10T08:15:49;32.30;45.00
21169;DHT22;10742;51.816;8.662;2023-06-10T08:18:53;32.20;44.60
21169;DHT22;10742;51.816;8.662;2023-06-10T08:21:56;32.20;44.80
21169;DHT22;10742;51.816;8.662;2023-06-10T08:24:59;32.20;44.40
21169;DHT22;10742;51.816;8.662;2023-06-10T08:28:02;32.20;44.50
21169;DHT22;10742;51.816;8.662;2023-06-10T08:31:04;32.10;44.80
21169;DHT22;10742;51.816;8.662;2023-06-10T08:34:07;32.10;44.30
21169;DHT22;10742;51.816;8.662;2023-06-10T08:37:09;32.10;44.30
21169;DHT22;10742;51.816;8.662;2023-06-10T08:40:12;32.00;44.60
21169;DHT22;10742;51.816;8.662;2023-06-10T08:46:36;31.90;44.30
21169;DHT22;10742;51.816;8.662;2023-06-10T08:49:45;31.90;44.40
21169;DHT22;10742;51.816;8.662;2023-06-10T08:52:50;31.80;44.20
21169;DHT22;10742;51.816;8.662;2023-06-10T08:55:59;31.70;44.30
21169;DHT22;10742;51.816;8.662;2023-06-10T08:59:03;31.60;44.70
21169;DHT22;10742;51.816;8.662;2023-06-10T09:02:07;31.60;45.20
21169;DHT22;10742;51.816;8.662;2023-06-10T09:05:10;31.60;45.40
21169;DHT22;10742;51.816;8.662;2023-06-10T09:08:15;31.70;45.70
21169;DHT22;10742;51.816;8.662;2023-06-10T09:11:19;31.80;45.90
21169;DHT22;10742;51.816;8.662;2023-06-10T09:14:21;32.10;45.90
21169;DHT22;10742;51.816;8.662;2023-06-10T09:17:25;32.30;45.60
21169;DHT22;10742;51.816;8.662;2023-06-10T09:20:27;32.60;45.70
21169;DHT22;10742;51.816;8.662;2023-06-10T09:23:30;32.80;45.60
21169;DHT22;10742;51.816;8.662;2023-06-10T09:26:33;33.10;45.10
21169;DHT22;10742;51.816;8.662;2023-06-10T09:32:57;33.50;44.00
21169;DHT22;10742;51.816;8.662;2023-06-10T09:36:01;33.70;43.90
21169;DHT22;10742;51.816;8.662;2023-06-10T09:39:05;33.80;43.40
21169;DHT22;10742;51.816;8.662;2023-06-10T09:42:17;33.90;42.70
21169;DHT22;10742;51.816;8.662;2023-06-10T09:45:21;33.70;43.00
21169;DHT22;10742;51.816;8.662;2023-06-10T09:48:23;33.70;43.00
21169;DHT22;10742;51.816;8.662;2023-06-10T09:51:26;33.50;43.10
21169;DHT22;10742;51.816;8.662;2023-06-10T09:54:31;33.30;43.10
21169;DHT22;10742;51.816;8.662;2023-06-10T09:57:34;33.20;43.60
21169;DHT22;10742;51.816;8.662;2023-06-10T10:00:38;33.10;43.70
21169;DHT22;10742;51.816;8.662;2023-06-10T10:03:47;33.10;44.60
21169;DHT22;10742;51.816;8.662;2023-06-10T10:06:50;33.10;43.90
21169;DHT22;10742;51.816;8.662;2023-06-10T10:09:53;33.10;44.20
21169;DHT22;10742;51.816;8.662;2023-06-10T10:12:56;33.20;44.20
21169;DHT22;10742;51.816;8.662;2023-06-10T10:16:01;33.40;44.10
21169;DHT22;10742;51.816;8.662;2023-06-10T10:19:31;33.50;43.50
21169;DHT22;10742;51.816;8.662;2023-06-10T10:22:39;33.60;43.20
21169;DHT22;10742;51.816;8.662;2023-06-10T10:25:42;33.70;43.20
21169;DHT22;10742;51.816;8.662;2023-06-10T10:28:51;33.70;43.20
21169;DHT22;10742;51.816;8.662;2023-06-10T10:31:56;33.70;43.00
21169;DHT22;10742;51.816;8.662;2023-06-10T10:35:12;33.70;43.20
21169;DHT22;10742;51.816;8.662;2023-06-10T10:38:17;33.80;43.30
21169;DHT22;10742;51.816;8.662;2023-06-10T10:41:20;33.80;42.70
21169;DHT22;10742;51.816;8.662;2023-06-10T10:44:24;33.80;43.20
21169;DHT22;10742;51.816;8.662;2023-06-10T10:47:27;33.80;42.50
21169;DHT22;10742;51.816;8.662;2023-06-10T10:50:33;33.80;41.80
21169;DHT22;10742;51.816;8.662;2023-06-10T10:53:37;33.80;41.30
21169;DHT22;10742;51.816;8.662;2023-06-10T10:57:09;33.70;41.70
21169;DHT22;10742;51.816;8.662;2023-06-10T11:00:26;33.80;41.60
21169;DHT22;10742;51.816;8.662;2023-06-10T11:03:31;33.80;41.40
21169;DHT22;10742;51.816;8.662;2023-06-10T11:06:53;33.80;42.00
21169;DHT22;10742;51.816;8.662;2023-06-10T11:10:10;33.80;41.60
21169;DHT22;10742;51.816;8.662;2023-06-10T11:13:14;33.70;41.50
21169;DHT22;10742;51.816;8.662;2023-06-10T11:16:19;33.70;41.30
21169;DHT22;10742;51.816;8.662;2023-06-10T11:19:33;33.70;40.60
21169;DHT22;10742;51.816;8.662;2023-06-10T11:23:00;33.60;40.50
21169;DHT22;10742;51.816;8.662;2023-06-10T11:29:34;33.50;40.50
21169;DHT22;10742;51.816;8.662;2023-06-10T11:32:37;33.60;40.50
21169;DHT22;10742;51.816;8.662;2023-06-10T11:35:41;33.60;40.10
21169;DHT22;10742;51.816;8.662;2023-06-10T11:38:44;33.60;40.10
21169;DHT22;10742;51.816;8.662;2023-06-10T11:41:47;33.50;39.90
21169;DHT22;10742;51.816;8.662;2023-06-10T11:44:52;33.50;39.90
21169;DHT22;10742;51.816;8.662;2023-06-10T11:47:59;33.50;40.10
21169;DHT22;10742;51.816;8.662;2023-06-10T11:51:06;33.50;40.00
21169;DHT22;10742;51.816;8.662;2023-06-10T11:54:09;33.40;40.10
21169;DHT22;10742;51.816;8.662;2023-06-10T11:57:12;33.50;40.20
21169;DHT22;10742;51.816;8.662;2023-06-10T12:00:15;33.40;39.70
21169;DHT22;10742;51.816;8.662;2023-06-10T12:03:18;33.40;39.90
21169;DHT22;10742;51.816;8.662;2023-06-10T12:06:20;33.40;39.80
21169;DHT22;10742;51.816;8.662;2023-06-10T12:09:27;33.40;40.20
21169;DHT22;10742;51.816;8.662;2023-06-10T12:12:30;33.30;40.20
21169;DHT22;10742;51.816;8.662;2023-06-10T12:15:33;33.20;40.80
21169;DHT22;10742;51.816;8.662;2023-06-10T12:18:37;33.20;41.00
21169;DHT22;10742;51.816;8.662;2023-06-10T12:21:44;33.10;41.30
21169;DHT22;10742;51.816;8.662;2023-06-10T12:25:04;33.10;41.60
21169;DHT22;10742;51.816;8.662;2023-06-10T12:28:10;33.10;41.70
21169;DHT22;10742;51.816;8.662;2023-06-10T12:31:13;33.10;42.00
21169;DHT22;10742;51.816;8.662;2023-06-10T12:34:16;33.10;42.20
21169;DHT22;10742;51.816;8.662;2023-06-10T12:37:19;33.20;42.20
21169;DHT22;10742;51.816;8.662;2023-06-10T12:40:26;33.10;42.50
21169;DHT22;10742;51.816;8.662;2023-06-10T12:43:31;33.20;42.50
21169;DHT22;10742;51.816;8.662;2023-06-10T12:46:37;33.30;42.30
21169;DHT22;10742;51.816;8.662;2023-06-10T12:49:41;33.30;42.20
21169;DHT22;10742;51.816;8.662;2023-06-10T12:52:43;33.30;42.00
21169;DHT22;10742;51.816;8.662;2023-06-10T12:55:46;33.30;42.10
21169;DHT22;10742;51.816;8.662;2023-06-10T12:58:49;33.20;42.10
21169;DHT22;10742;51.816;8.662;2023-06-10T13:01:52;33.20;42.10
21169;DHT22;10742;51.816;8.662;2023-06-10T13:04:55;33.20;42.20
21169;DHT22;10742;51.816;8.662;2023-06-10T13:07:58;33.30;42.50
21169;DHT22;10742;51.816;8.662;2023-06-10T13:11:01;33.30;42.70
21169;DHT22;10742;51.816;8.662;2023-06-10T13:14:04;33.30;42.60
21169;DHT22;10742;51.816;8.662;2023-06-10T13:17:08;33.40;42.00
21169;DHT22;10742;51.816;8.662;2023-06-10T13:20:11;33.40;42.20
21169;DHT22;10742;51.816;8.662;2023-06-10T13:23:13;33.40;42.10
21169;DHT22;10742;51.816;8.662;2023-06-10T13:26:16;33.40;42.50
21169;DHT22;10742;51.816;8.662;2023-06-10T13:29:19;33.50;42.00
21169;DHT22;10742;51.816;8.662;2023-06-10T13:32:22;33.60;41.90
21169;DHT22;10742;51.816;8.662;2023-06-10T13:35:25;33.60;41.60
21169;DHT22;10742;51.816;8.662;2023-06-10T13:38:27;33.80;41.90
21169;DHT22;10742;51.816;8.662;2023-06-10T13:41:30;33.90;41.90
21169;DHT22;10742;51.816;8.662;2023-06-10T13:44:33;33.90;41.80
21169;DHT22;10742;51.816;8.662;2023-06-10T13:47:38;34.00;41.70
21169;DHT22;10742;51.816;8.662;2023-06-10T13:50:41;34.10;41.50
21169;DHT22;10742;51.816;8.662;2023-06-10T13:53:47;34.10;41.50
21169;DHT22;10742;51.816;8.662;2023-06-10T13:56:50;34.10;41.80
21169;DHT22;10742;51.816;8.662;2023-06-10T13:59:52;34.10;41.30
21169;DHT22;10742;51.816;8.662;2023-06-10T14:02:55;34.10;41.10
21169;DHT22;10742;51.816;8.662;2023-06-10T14:05:58;34.10;41.40
21169;DHT22;10742;51.816;8.662;2023-06-10T14:09:01;34.10;41.70
21169;DHT22;10742;51.816;8.662;2023-06-10T14:12:04;34.10;41.60
21169;DHT22;10742;51.816;8.662;2023-06-10T14:15:08;34.00;41.60
21169;DHT22;10742;51.816;8.662;2023-06-10T14:18:10;34.00;41.80
21169;DHT22;10742;51.816;8.662;2023-06-10T14:21:13;34.00;41.70
21169;DHT22;10742;51.816;8.662;2023-06-10T14:24:16;34.00;42.10
21169;DHT22;10742;51.816;8.662;2023-06-10T14:27:18;33.90;41.90
21169;DHT22;10742;51.816;8.662;2023-06-10T14:30:21;33.90;42.00
21169;DHT22;10742;51.816;8.662;2023-06-10T14:33:23;33.90;42.10
21169;DHT22;10742;51.816;8.662;2023-06-10T14:36:26;33.90;42.30
21169;DHT22;10742;51.816;8.662;2023-06-10T14:39:29;33.90;42.30
21169;DHT22;10742;51.816;8.662;2023-06-10T14:42:32;33.90;42.40
21169;DHT22;10742;51.816;8.662;2023-06-10T14:45:41;33.90;42.40
21169;DHT22;10742;51.816;8.662;2023-06-10T14:48:43;33.90;42.40
21169;DHT22;10742;51.816;8.662;2023-06-10T14:51:46;33.90;42.50
21169;DHT22;10742;51.816;8.662;2023-06-10T14:54:50;33.90;42.70
21169;DHT22;10742;51.816;8.662;2023-06-10T14:57:52;33.80;42.80
21169;DHT22;10742;51.816;8.662;2023-06-10T15:00:55;33.70;42.80
21169;DHT22;10742;51.816;8.662;2023-06-10T15:03:57;33.60;43.00
21169;DHT22;10742;51.816;8.662;2023-06-10T15:07:00;33.50;43.60
21169;DHT22;10742;51.816;8.662;2023-06-10T15:10:03;33.50;43.90
21169;DHT22;10742;51.816;8.662;2023-06-10T15:13:05;33.50;43.70
21169;DHT22;10742;51.816;8.662;2023-06-10T15:16:08;33.40;44.30
21169;DHT22;10742;51.816;8.662;2023-06-10T15:19:10;33.40;43.80
21169;DHT22;10742;51.816;8.662;2023-06-10T15:22:13;33.50;44.00
21169;DHT22;10742;51.816;8.662;2023-06-10T15:25:15;33.50;44.10
21169;DHT22;10742;51.816;8.662;2023-06-10T15:28:26;33.50;44.40
21169;DHT22;10742;51.816;8.662;2023-06-10T15:31:30;33.50;44.40
21169;DHT22;10742;51.816;8.662;2023-06-10T15:34:34;33.40;44.30
21169;DHT22;10742;51.816;8.662;2023-06-10T15:37:36;33.30;44.50
21169;DHT22;10742;51.816;8.662;2023-06-10T15:40:41;33.20;44.70
21169;DHT22;10742;51.816;8.662;2023-06-10T15:43:43;33.10;44.90
21169;DHT22;10742;51.816;8.662;2023-06-10T15:46:46;33.00;45.00
21169;DHT22;10742;51.816;8.662;2023-06-10T15:49:48;32.90;45.00
21169;DHT22;10742;51.816;8.662;2023-06-10T15:52:51;32.90;45.10
21169;DHT22;10742;51.816;8.662;2023-06-10T15:55:53;32.80;45.40
21169;DHT22;10742;51.816;8.662;2023-06-10T15:58:56;32.80;45.40
21169;DHT22;10742;51.816;8.662;2023-06-10T16:01:58;32.70;45.50
21169;DHT22;10742;51.816;8.662;2023-06-10T16:05:01;32.70;45.50
21169;DHT22;10742;51.816;8.662;2023-06-10T16:08:04;32.60;45.40
21169;DHT22;10742;51.816;8.662;2023-06-10T16:11:07;32.60;45.50
21169;DHT22;10742;51.816;8.662;2023-06-10T16:14:10;32.50;45.40
21169;DHT22;10742;51.816;8.662;2023-06-10T16:17:13;32.50;45.60
21169;DHT22;10742;51.816;8.662;2023-06-10T16:20:15;32.40;45.80
21169;DHT22;10742;51.816;8.662;2023-06-10T16:23:18;32.30;46.10
21169;DHT22;10742;51.816;8.662;2023-06-10T16:26:20;32.30;46.20
21169;DHT22;10742;51.816;8.662;2023-06-10T16:29:23;32.30;46.10
21169;DHT22;10742;51.816;8.662;2023-06-10T16:32:26;32.30;46.20
21169;DHT22;10742;51.816;8.662;2023-06-10T16:35:28;32.30;46.10
21169;DHT22;10742;51.816;8.662;2023-06-10T16:38:31;32.40;46.20
21169;DHT22;10742;51.816;8.662;2023-06-10T16:41:33;32.30;46.40
21169;DHT22;10742;51.816;8.662;2023-06-10T16:44:36;32.30;46.40
21169;DHT22;10742;51.816;8.662;2023-06-10T16:47:38;32.30;46.20
21169;DHT22;10742;51.816;8.662;2023-06-10T16:50:41;32.30;46.40
21169;DHT22;10742;51.816;8.662;2023-06-10T16:53:44;32.30;46.30
21169;DHT22;10742;51.816;8.662;2023-06-10T16:56:47;32.30;46.10
21169;DHT22;10742;51.816;8.662;2023-06-10T16:59:49;32.30;45.50
21169;DHT22;10742;51.816;8.662;2023-06-10T17:02:52;32.30;44.90
21169;DHT22;10742;51.816;8.662;2023-06-10T17:05:55;32.30;44.70
21169;DHT22;10742;51.816;8.662;2023-06-10T17:08:57;32.30;44.20
21169;DHT22;10742;51.816;8.662;2023-06-10T17:12:00;32.30;44.10
21169;DHT22;10742;51.816;8.662;2023-06-10T17:15:03;32.20;44.10
21169;DHT22;10742;51.816;8.662;2023-06-10T17:18:05;32.20;44.00
21169;DHT22;10742;51.816;8.662;2023-06-10T17:21:08;32.20;43.90
21169;DHT22;10742;51.816;8.662;2023-06-10T17:24:10;32.20;43.80
21169;DHT22;10742;51.816;8.662;2023-06-10T17:27:32;32.20;43.90
21169;DHT22;10742;51.816;8.662;2023-06-10T17:30:53;32.20;44.00
21169;DHT22;10742;51.816;8.662;2023-06-10T17:34:14;32.20;44.20
21169;DHT22;10742;51.816;8.662;2023-06-10T17:37:17;32.10;44.20
21169;DHT22;10742;51.816;8.662;2023-06-10T17:40:19;32.20;44.30
21169;DHT22;10742;51.816;8.662;2023-06-10T17:43:22;32.10;44.20
21169;DHT22;10742;51.816;8.662;2023-06-10T17:46:25;32.10;44.50
21169;DHT22;10742;51.816;8.662;2023-06-10T17:49:28;32.10;45.20
21169;DHT22;10742;51.816;8.662;2023-06-10T17:52:33;32.10;44.70
21169;DHT22;10742;51.816;8.662;2023-06-10T17:55:36;32.00;44.80
21169;DHT22;10742;51.816;8.662;2023-06-10T17:58:38;32.00;44.80
21169;DHT22;10742;51.816;8.662;2023-06-10T18:01:43;32.00;45.10
21169;DHT22;10742;51.816;8.662;2023-06-10T18:04:47;31.90;45.40
21169;DHT22;10742;51.816;8.662;2023-06-10T18:07:50;31.90;45.60
21169;DHT22;10742;51.816;8.662;2023-06-10T18:10:53;32.00;45.90
21169;DHT22;10742;51.816;8.662;2023-06-10T18:13:56;32.00;46.30
21169;DHT22;10742;51.816;8.662;2023-06-10T18:16:58;31.90;46.60
21169;DHT22;10742;51.816;8.662;2023-06-10T18:20:04;31.90;47.00
21169;DHT22;10742;51.816;8.662;2023-06-10T18:23:06;31.90;47.20
21169;DHT22;10742;51.816;8.662;2023-06-10T18:26:10;31.80;47.30
21169;DHT22;10742;51.816;8.662;2023-06-10T18:29:13;31.70;47.60
21169;DHT22;10742;51.816;8.662;2023-06-10T18:32:15;31.60;47.70
21169;DHT22;10742;51.816;8.662;2023-06-10T18:35:18;31.60;47.80
21169;DHT22;10742;51.816;8.662;2023-06-10T18:38:20;31.60;47.80
21169;DHT22;10742;51.816;8.662;2023-06-10T18:41:23;31.50;47.90
21169;DHT22;10742;51.816;8.662;2023-06-10T18:44:25;31.40;47.90
21169;DHT22;10742;51.816;8.662;2023-06-10T18:47:28;31.30;47.90
21169;DHT22;10742;51.816;8.662;2023-06-10T18:50:32;31.20;48.00
21169;DHT22;10742;51.816;8.662;2023-06-10T18:53:35;31.10;48.10
21169;DHT22;10742;51.816;8.662;2023-06-10T18:56:38;31.00;48.20
21169;DHT22;10742;51.816;8.662;2023-06-10T18:59:41;30.90;48.40
21169;DHT22;10742;51.816;8.662;2023-06-10T19:02:43;30.80;48.70
21169;DHT22;10742;51.816;8.662;2023-06-10T19:05:46;30.70;48.70
21169;DHT22;10742;51.816;8.662;2023-06-10T19:08:48;30.60;48.90
21169;DHT22;10742;51.816;8.662;2023-06-10T19:11:51;30.50;48.70
21169;DHT22;10742;51.816;8.662;2023-06-10T19:14:53;30.40;48.70
21169;DHT22;10742;51.816;8.662;2023-06-10T19:17:56;30.30;48.60
21169;DHT22;10742;51.816;8.662;2023-06-10T19:20:59;30.20;48.50
21169;DHT22;10742;51.816;8.662;2023-06-10T19:24:01;30.10;48.50
21169;DHT22;10742;51.816;8.662;2023-06-10T19:27:06;30.00;48.90
21169;DHT22;10742;51.816;8.662;2023-06-10T19:30:09;29.90;49.00
21169;DHT22;10742;51.816;8.662;2023-06-10T19:33:12;29.80;49.30
21169;DHT22;10742;51.816;8.662;2023-06-10T19:36:14;29.80;49.30